sensor_id;sensor_type;location;lat;lon;timestamp;P1;durP1;ratioP1;P2;durP2;ratioP2
37753;SDS011;23596;52.520;13.464;2023-05-19T00:00:43;5.63;;;1.92;;
37753;SDS011;23596;52.520;13.464;2023-05-19T00:03:09;17.53;;;2.80;;
37753;SDS011;23596;52.520;13.464;2023-05-19T00:05:36;11.02;;;2.58;;
37753;SDS011;23596;52.520;13.464;2023-05-19T00:08:09;16.95;;;2.90;;
37753;SDS011;23596;52.520;13.464;2023-05-19T00:10:35;8.23;;;2.42;;
37753;SDS011;23596;52.520;13.464;2023-05-19T00:13:02;11.45;;;2.40;;
37753;SDS011;23596;52.520;13.464;2023-05-19T00:15:28;14.55;;;2.65;;
37753;SDS011;23596;52.520;13.464;2023-05-19T00:17:54;6.97;;;2.30;;
37753;SDS011;23596;52.520;13.464;2023-05-19T00:20:20;11.60;;;2.43;;
37753;SDS011;23596;52.520;13.464;2023-05-19T00:22:46;13.93;;;2.35;;
37753;SDS011;23596;52.520;13.464;2023-05-19T00:25:12;16.67;;;2.53;;
37753;SDS011;23596;52.520;13.464;2023-05-19T00:27:37;14.48;;;2.97;;
37753;SDS011;23596;52.520;13.464;2023-05-19T00:30:03;18.25;;;2.05;;
37753;SDS011;23596;52.520;13.464;2023-05-19T00:32:29;9.27;;;2.22;;
37753;SDS011;23596;52.520;13.464;2023-05-19T00:34:55;18.70;;;2.73;;
37753;SDS011;23596;52.520;13.464;2023-05-19T00:37:20;20.10;;;2.43;;
37753;SDS011;23596;52.520;13.464;2023-05-19T00:39:47;18.98;;;2.70;;
37753;SDS011;23596;52.520;13.464;2023-05-19T00:42:13;11.73;;;2.20;;
37753;SDS011;23596;52.520;13.464;2023-05-19T00:44:39;7.93;;;1.83;;
37753;SDS011;23596;52.520;13.464;2023-05-19T00:47:05;10.88;;;2.67;;
37753;SDS011;23596;52.520;13.464;2023-05-19T00:49:32;29.08;;;2.83;;
37753;SDS011;23596;52.520;13.464;2023-05-19T00:51:58;11.63;;;1.85;;
37753;SDS011;23596;52.520;13.464;2023-05-19T00:54:25;11.73;;;2.15;;
37753;SDS011;23596;52.520;13.464;2023-05-19T00:56:52;15.02;;;1.88;;
37753;SDS011;23596;52.520;13.464;2023-05-19T00:59:22;14.98;;;2.45;;
37753;SDS011;23596;52.520;13.464;2023-05-19T01:01:48;9.40;;;2.27;;
37753;SDS011;23596;52.520;13.464;2023-05-19T01:04:15;20.42;;;2.95;;
37753;SDS011;23596;52.520;13.464;2023-05-19T01:06:45;11.07;;;2.78;;
37753;SDS011;23596;52.520;13.464;2023-05-19T01:09:18;15.73;;;2.83;;
37753;SDS011;23596;52.520;13.464;2023-05-19T01:11:46;8.98;;;2.00;;
37753;SDS011;23596;52.520;13.464;2023-05-19T01:14:12;14.23;;;2.87;;
37753;SDS011;23596;52.520;13.464;2023-05-19T01:16:49;9.77;;;2.13;;
37753;SDS011;23596;52.520;13.464;2023-05-19T01:19:26;5.78;;;2.08;;
37753;SDS011;23596;52.520;13.464;2023-05-19T01:22:17;9.00;;;2.03;;
37753;SDS011;23596;52.520;13.464;2023-05-19T01:30:39;7.25;;;1.83;;
37753;SDS011;23596;52.520;13.464;2023-05-19T01:33:07;10.43;;;1.98;;
37753;SDS011;23596;52.520;13.464;2023-05-19T01:35:36;14.27;;;2.35;;
37753;SDS011;23596;52.520;13.464;2023-05-19T01:38:03;17.73;;;2.28;;
37753;SDS011;23596;52.520;13.464;2023-05-19T01:40:31;12.50;;;2.47;;
37753;SDS011;23596;52.520;13.464;2023-05-19T01:42:58;11.13;;;2.37;;
37753;SDS011;23596;52.520;13.464;2023-05-19T01:45:29;11.38;;;2.30;;
37753;SDS011;23596;52.520;13.464;2023-05-19T01:47:58;13.45;;;2.55;;
37753;SDS011;23596;52.520;13.464;2023-05-19T01:50:25;7.55;;;1.90;;
37753;SDS011;23596;52.520;13.464;2023-05-19T01:52:52;13.50;;;2.60;;
37753;SDS011;23596;52.520;13.464;2023-05-19T01:55:17;10.90;;;2.27;;
37753;SDS011;23596;52.520;13.464;2023-05-19T02:06:27;10.05;;;2.45;;
37753;SDS011;23596;52.520;13.464;2023-05-19T02:09:11;12.68;;;2.83;;
37753;SDS011;23596;52.520;13.464;2023-05-19T02:12:00;11.32;;;2.00;;
37753;SDS011;23596;52.520;13.464;2023-05-19T02:14:39;11.40;;;2.63;;
37753;SDS011;23596;52.520;13.464;2023-05-19T02:17:13;20.02;;;2.17;;
37753;SDS011;23596;52.520;13.464;2023-05-19T02:19:41;16.25;;;2.95;;
37753;SDS011;23596;52.520;13.464;2023-05-19T02:22:07;11.77;;;2.43;;
37753;SDS011;23596;52.520;13.464;2023-05-19T02:24:33;13.50;;;1.90;;
37753;SDS011;23596;52.520;13.464;2023-05-19T02:26:58;11.97;;;3.23;;
37753;SDS011;23596;52.520;13.464;2023-05-19T02:29:24;14.03;;;2.50;;
37753;SDS011;23596;52.520;13.464;2023-05-19T02:31:50;9.53;;;2.63;;
37753;SDS011;23596;52.520;13.464;2023-05-19T02:34:15;13.60;;;3.17;;
37753;SDS011;23596;52.520;13.464;2023-05-19T02:36:41;13.18;;;2.75;;
37753;SDS011;23596;52.520;13.464;2023-05-19T02:39:07;13.15;;;2.33;;
37753;SDS011;23596;52.520;13.464;2023-05-19T02:41:34;14.15;;;2.05;;
37753;SDS011;23596;52.520;13.464;2023-05-19T02:44:00;12.27;;;2.20;;
37753;SDS011;23596;52.520;13.464;2023-05-19T02:46:26;14.23;;;2.63;;
37753;SDS011;23596;52.520;13.464;2023-05-19T02:48:51;13.48;;;2.00;;
37753;SDS011;23596;52.520;13.464;2023-05-19T02:51:17;9.48;;;2.20;;
37753;SDS011;23596;52.520;13.464;2023-05-19T02:53:43;9.45;;;2.33;;
37753;SDS011;23596;52.520;13.464;2023-05-19T02:56:08;21.93;;;2.20;;
37753;SDS011;23596;52.520;13.464;2023-05-19T02:58:34;8.60;;;2.20;;
37753;SDS011;23596;52.520;13.464;2023-05-19T03:00:59;9.10;;;2.03;;
37753;SDS011;23596;52.520;13.464;2023-05-19T03:03:25;11.83;;;2.43;;
37753;SDS011;23596;52.520;13.464;2023-05-19T03:05:51;10.35;;;2.65;;
37753;SDS011;23596;52.520;13.464;2023-05-19T03:08:17;17.25;;;2.20;;
37753;SDS011;23596;52.520;13.464;2023-05-19T03:10:44;12.23;;;2.83;;
37753;SDS011;23596;52.520;13.464;2023-05-19T03:15:36;14.70;;;2.42;;
37753;SDS011;23596;52.520;13.464;2023-05-19T03:18:01;10.73;;;2.90;;
37753;SDS011;23596;52.520;13.464;2023-05-19T03:20:27;13.20;;;2.70;;
37753;SDS011;23596;52.520;13.464;2023-05-19T03:22:54;10.52;;;2.92;;
37753;SDS011;23596;52.520;13.464;2023-05-19T03:25:20;11.20;;;2.50;;
37753;SDS011;23596;52.520;13.464;2023-05-19T03:27:46;14.55;;;2.20;;
37753;SDS011;23596;52.520;13.464;2023-05-19T03:30:15;12.90;;;3.03;;
37753;SDS011;23596;52.520;13.464;2023-05-19T03:32:42;4.97;;;1.95;;
37753;SDS011;23596;52.520;13.464;2023-05-19T03:35:07;12.50;;;2.03;;
37753;SDS011;23596;52.520;13.464;2023-05-19T03:37:33;11.60;;;2.30;;
37753;SDS011;23596;52.520;13.464;2023-05-19T03:39:59;7.10;;;2.10;;
37753;SDS011;23596;52.520;13.464;2023-05-19T03:42:24;9.52;;;2.33;;
37753;SDS011;23596;52.520;13.464;2023-05-19T03:44:50;27.52;;;3.45;;
37753;SDS011;23596;52.520;13.464;2023-05-19T03:47:16;14.83;;;2.50;;
37753;SDS011;23596;52.520;13.464;2023-05-19T03:49:42;17.00;;;2.20;;
37753;SDS011;23596;52.520;13.464;2023-05-19T03:52:07;7.30;;;2.10;;
37753;SDS011;23596;52.520;13.464;2023-05-19T03:54:33;9.13;;;2.10;;
37753;SDS011;23596;52.520;13.464;2023-05-19T03:57:00;10.43;;;2.90;;
37753;SDS011;23596;52.520;13.464;2023-05-19T03:59:26;11.00;;;2.35;;
37753;SDS011;23596;52.520;13.464;2023-05-19T04:01:52;19.03;;;3.73;;
37753;SDS011;23596;52.520;13.464;2023-05-19T04:04:17;11.57;;;2.30;;
37753;SDS011;23596;52.520;13.464;2023-05-19T04:06:43;8.83;;;3.07;;
37753;SDS011;23596;52.520;13.464;2023-05-19T04:09:12;16.17;;;3.05;;
37753;SDS011;23596;52.520;13.464;2023-05-19T04:11:39;15.88;;;2.50;;
37753;SDS011;23596;52.520;13.464;2023-05-19T04:14:05;12.10;;;2.70;;
37753;SDS011;23596;52.520;13.464;2023-05-19T04:16:31;13.82;;;2.55;;
37753;SDS011;23596;52.520;13.464;2023-05-19T04:18:57;12.20;;;3.03;;
37753;SDS011;23596;52.520;13.464;2023-05-19T04:21:23;8.67;;;2.30;;
37753;SDS011;23596;52.520;13.464;2023-05-19T04:23:48;13.80;;;2.63;;
37753;SDS011;23596;52.520;13.464;2023-05-19T04:26:14;12.97;;;2.47;;
37753;SDS011;23596;52.520;13.464;2023-05-19T04:28:40;7.82;;;2.70;;
37753;SDS011;23596;52.520;13.464;2023-05-19T04:31:08;12.20;;;2.78;;
37753;SDS011;23596;52.520;13.464;2023-05-19T04:33:38;12.20;;;2.42;;
37753;SDS011;23596;52.520;13.464;2023-05-19T04:36:04;16.93;;;2.63;;
37753;SDS011;23596;52.520;13.464;2023-05-19T04:38:36;19.13;;;3.38;;
37753;SDS011;23596;52.520;13.464;2023-05-19T04:41:03;13.15;;;2.72;;
37753;SDS011;23596;52.520;13.464;2023-05-19T04:43:35;12.43;;;2.92;;
37753;SDS011;23596;52.520;13.464;2023-05-19T04:46:01;7.97;;;2.43;;
37753;SDS011;23596;52.520;13.464;2023-05-19T04:48:30;13.55;;;3.40;;
37753;SDS011;23596;52.520;13.464;2023-05-19T04:50:56;11.40;;;3.23;;
37753;SDS011;23596;52.520;13.464;2023-05-19T04:53:21;6.82;;;2.53;;
37753;SDS011;23596;52.520;13.464;2023-05-19T04:55:49;7.15;;;2.55;;
37753;SDS011;23596;52.520;13.464;2023-05-19T04:58:15;15.73;;;3.17;;
37753;SDS011;23596;52.520;13.464;2023-05-19T05:00:41;13.25;;;2.28;;
37753;SDS011;23596;52.520;13.464;2023-05-19T05:03:06;16.25;;;3.05;;
37753;SDS011;23596;52.520;13.464;2023-05-19T05:05:33;11.65;;;2.88;;
37753;SDS011;23596;52.520;13.464;2023-05-19T05:07:58;14.10;;;2.80;;
37753;SDS011;23596;52.520;13.464;2023-05-19T05:10:25;11.73;;;2.67;;
37753;SDS011;23596;52.520;13.464;2023-05-19T05:12:50;9.43;;;2.67;;
37753;SDS011;23596;52.520;13.464;2023-05-19T05:15:17;11.50;;;2.42;;
37753;SDS011;23596;52.520;13.464;2023-05-19T05:17:43;10.25;;;3.28;;
37753;SDS011;23596;52.520;13.464;2023-05-19T05:20:09;11.02;;;3.05;;
37753;SDS011;23596;52.520;13.464;2023-05-19T05:22:36;7.57;;;2.85;;
37753;SDS011;23596;52.520;13.464;2023-05-19T05:25:05;14.90;;;2.75;;
37753;SDS011;23596;52.520;13.464;2023-05-19T05:27:31;11.88;;;3.00;;
37753;SDS011;23596;52.520;13.464;2023-05-19T05:29:57;14.97;;;2.50;;
37753;SDS011;23596;52.520;13.464;2023-05-19T05:32:22;11.77;;;2.85;;
37753;SDS011;23596;52.520;13.464;2023-05-19T05:34:48;16.87;;;2.67;;
37753;SDS011;23596;52.520;13.464;2023-05-19T05:37:14;7.70;;;3.00;;
37753;SDS011;23596;52.520;13.464;2023-05-19T05:39:40;10.82;;;3.10;;
37753;SDS011;23596;52.520;13.464;2023-05-19T05:42:06;12.75;;;3.63;;
37753;SDS011;23596;52.520;13.464;2023-05-19T05:46:59;9.93;;;2.72;;
37753;SDS011;23596;52.520;13.464;2023-05-19T05:49:26;12.57;;;2.85;;
37753;SDS011;23596;52.520;13.464;2023-05-19T05:51:52;10.23;;;3.27;;
37753;SDS011;23596;52.520;13.464;2023-05-19T05:54:19;9.45;;;2.85;;
37753;SDS011;23596;52.520;13.464;2023-05-19T05:56:46;10.57;;;3.78;;
37753;SDS011;23596;52.520;13.464;2023-05-19T05:59:13;14.45;;;3.05;;
37753;SDS011;23596;52.520;13.464;2023-05-19T06:01:39;16.08;;;3.55;;
37753;SDS011;23596;52.520;13.464;2023-05-19T06:04:06;11.50;;;3.15;;
37753;SDS011;23596;52.520;13.464;2023-05-19T06:06:31;9.07;;;3.60;;
37753;SDS011;23596;52.520;13.464;2023-05-19T06:08:57;16.20;;;3.47;;
37753;SDS011;23596;52.520;13.464;2023-05-19T06:11:23;12.17;;;3.47;;
37753;SDS011;23596;52.520;13.464;2023-05-19T06:13:49;11.60;;;3.77;;
37753;SDS011;23596;52.520;13.464;2023-05-19T06:16:14;24.77;;;3.85;;
37753;SDS011;23596;52.520;13.464;2023-05-19T06:18:40;13.13;;;3.40;;
37753;SDS011;23596;52.520;13.464;2023-05-19T06:21:05;13.43;;;3.83;;
37753;SDS011;23596;52.520;13.464;2023-05-19T06:23:34;30.20;;;4.05;;
37753;SDS011;23596;52.520;13.464;2023-05-19T06:26:00;11.10;;;3.65;;
37753;SDS011;23596;52.520;13.464;2023-05-19T06:28:25;10.95;;;2.92;;
37753;SDS011;23596;52.520;13.464;2023-05-19T06:30:51;9.45;;;2.85;;
37753;SDS011;23596;52.520;13.464;2023-05-19T06:33:17;15.10;;;3.40;;
37753;SDS011;23596;52.520;13.464;2023-05-19T06:35:42;14.73;;;3.05;;
37753;SDS011;23596;52.520;13.464;2023-05-19T06:38:08;10.05;;;2.70;;
37753;SDS011;23596;52.520;13.464;2023-05-19T06:40:34;9.88;;;2.95;;
37753;SDS011;23596;52.520;13.464;2023-05-19T06:43:00;6.20;;;2.67;;
37753;SDS011;23596;52.520;13.464;2023-05-19T06:45:26;9.80;;;3.45;;
37753;SDS011;23596;52.520;13.464;2023-05-19T06:47:52;9.53;;;3.10;;
37753;SDS011;23596;52.520;13.464;2023-05-19T06:50:18;18.27;;;3.58;;
37753;SDS011;23596;52.520;13.464;2023-05-19T06:52:44;13.40;;;3.83;;
37753;SDS011;23596;52.520;13.464;2023-05-19T06:55:11;9.85;;;2.92;;
37753;SDS011;23596;52.520;13.464;2023-05-19T06:57:36;7.63;;;2.87;;
37753;SDS011;23596;52.520;13.464;2023-05-19T07:00:03;8.80;;;3.17;;
37753;SDS011;23596;52.520;13.464;2023-05-19T07:02:30;14.68;;;3.50;;
37753;SDS011;23596;52.520;13.464;2023-05-19T07:04:56;10.80;;;2.97;;
37753;SDS011;23596;52.520;13.464;2023-05-19T07:07:22;8.57;;;3.58;;
37753;SDS011;23596;52.520;13.464;2023-05-19T07:09:47;16.20;;;2.70;;
37753;SDS011;23596;52.520;13.464;2023-05-19T07:12:13;16.23;;;3.50;;
37753;SDS011;23596;52.520;13.464;2023-05-19T07:14:39;7.27;;;2.53;;
37753;SDS011;23596;52.520;13.464;2023-05-19T07:17:05;8.40;;;2.47;;
37753;SDS011;23596;52.520;13.464;2023-05-19T07:19:30;16.07;;;3.87;;
37753;SDS011;23596;52.520;13.464;2023-05-19T07:21:56;18.40;;;3.37;;
37753;SDS011;23596;52.520;13.464;2023-05-19T07:24:23;10.90;;;3.15;;
37753;SDS011;23596;52.520;13.464;2023-05-19T07:26:48;9.40;;;3.20;;
37753;SDS011;23596;52.520;13.464;2023-05-19T07:29:14;14.20;;;3.07;;
37753;SDS011;23596;52.520;13.464;2023-05-19T07:31:40;13.77;;;3.05;;
37753;SDS011;23596;52.520;13.464;2023-05-19T07:34:05;13.88;;;3.22;;
37753;SDS011;23596;52.520;13.464;2023-05-19T07:36:31;8.57;;;2.97;;
37753;SDS011;23596;52.520;13.464;2023-05-19T07:38:58;11.82;;;3.13;;
37753;SDS011;23596;52.520;13.464;2023-05-19T07:41:23;8.98;;;3.10;;
37753;SDS011;23596;52.520;13.464;2023-05-19T07:43:50;16.48;;;3.60;;
37753;SDS011;23596;52.520;13.464;2023-05-19T07:46:15;12.60;;;3.10;;
37753;SDS011;23596;52.520;13.464;2023-05-19T07:48:41;10.98;;;3.45;;
37753;SDS011;23596;52.520;13.464;2023-05-19T07:51:07;9.52;;;3.80;;
37753;SDS011;23596;52.520;13.464;2023-05-19T07:53:34;6.00;;;2.45;;
37753;SDS011;23596;52.520;13.464;2023-05-19T07:56:01;17.00;;;4.32;;
37753;SDS011;23596;52.520;13.464;2023-05-19T07:58:27;16.35;;;3.40;;
37753;SDS011;23596;52.520;13.464;2023-05-19T08:00:52;13.80;;;3.03;;
37753;SDS011;23596;52.520;13.464;2023-05-19T08:03:21;9.90;;;3.15;;
37753;SDS011;23596;52.520;13.464;2023-05-19T08:05:47;12.50;;;3.13;;
37753;SDS011;23596;52.520;13.464;2023-05-19T08:08:13;14.65;;;3.45;;
37753;SDS011;23596;52.520;13.464;2023-05-19T08:10:40;8.68;;;3.10;;
37753;SDS011;23596;52.520;13.464;2023-05-19T08:13:06;10.97;;;2.73;;
37753;SDS011;23596;52.520;13.464;2023-05-19T08:15:32;12.03;;;3.57;;
37753;SDS011;23596;52.520;13.464;2023-05-19T08:17:57;9.40;;;3.10;;
37753;SDS011;23596;52.520;13.464;2023-05-19T08:20:23;10.17;;;3.50;;
37753;SDS011;23596;52.520;13.464;2023-05-19T08:22:49;9.87;;;2.80;;
37753;SDS011;23596;52.520;13.464;2023-05-19T08:25:14;8.38;;;3.08;;
37753;SDS011;23596;52.520;13.464;2023-05-19T08:27:40;12.93;;;3.72;;
37753;SDS011;23596;52.520;13.464;2023-05-19T08:30:06;7.32;;;3.03;;
37753;SDS011;23596;52.520;13.464;2023-05-19T08:32:32;12.10;;;3.30;;
37753;SDS011;23596;52.520;13.464;2023-05-19T08:34:57;12.90;;;3.33;;
37753;SDS011;23596;52.520;13.464;2023-05-19T08:37:23;11.15;;;3.60;;
37753;SDS011;23596;52.520;13.464;2023-05-19T08:39:49;4.90;;;2.33;;
37753;SDS011;23596;52.520;13.464;2023-05-19T08:42:14;8.50;;;2.88;;
37753;SDS011;23596;52.520;13.464;2023-05-19T08:44:40;7.68;;;2.20;;
37753;SDS011;23596;52.520;13.464;2023-05-19T08:47:07;13.90;;;3.47;;
37753;SDS011;23596;52.520;13.464;2023-05-19T08:49:42;7.22;;;2.88;;
37753;SDS011;23596;52.520;13.464;2023-05-19T08:55:02;7.40;;;2.83;;
37753;SDS011;23596;52.520;13.464;2023-05-19T08:57:33;11.85;;;2.30;;
37753;SDS011;23596;52.520;13.464;2023-05-19T09:00:00;7.60;;;1.88;;
37753;SDS011;23596;52.520;13.464;2023-05-19T09:02:28;9.73;;;1.90;;
37753;SDS011;23596;52.520;13.464;2023-05-19T09:04:54;13.70;;;3.17;;
37753;SDS011;23596;52.520;13.464;2023-05-19T09:07:21;7.10;;;2.20;;
37753;SDS011;23596;52.520;13.464;2023-05-19T09:09:49;7.05;;;2.42;;
37753;SDS011;23596;52.520;13.464;2023-05-19T09:12:15;13.37;;;2.47;;
37753;SDS011;23596;52.520;13.464;2023-05-19T09:14:40;4.43;;;2.13;;
37753;SDS011;23596;52.520;13.464;2023-05-19T09:17:06;2.67;;;1.52;;
37753;SDS011;23596;52.520;13.464;2023-05-19T09:19:32;7.63;;;1.90;;
37753;SDS011;23596;52.520;13.464;2023-05-19T09:21:58;3.63;;;1.85;;
37753;SDS011;23596;52.520;13.464;2023-05-19T09:24:25;5.82;;;1.35;;
37753;SDS011;23596;52.520;13.464;2023-05-19T09:26:52;5.60;;;1.45;;
37753;SDS011;23596;52.520;13.464;2023-05-19T09:29:20;12.68;;;1.88;;
37753;SDS011;23596;52.520;13.464;2023-05-19T09:31:55;4.10;;;1.67;;
37753;SDS011;23596;52.520;13.464;2023-05-19T09:34:30;5.75;;;1.60;;
37753;SDS011;23596;52.520;13.464;2023-05-19T09:36:56;7.13;;;1.50;;
37753;SDS011;23596;52.520;13.464;2023-05-19T09:39:24;5.47;;;1.30;;
37753;SDS011;23596;52.520;13.464;2023-05-19T09:41:50;6.25;;;1.35;;
37753;SDS011;23596;52.520;13.464;2023-05-19T09:44:22;6.38;;;1.70;;
37753;SDS011;23596;52.520;13.464;2023-05-19T09:46:52;5.40;;;1.55;;
37753;SDS011;23596;52.520;13.464;2023-05-19T09:51:47;12.80;;;1.92;;
37753;SDS011;23596;52.520;13.464;2023-05-19T09:54:14;5.00;;;1.75;;
37753;SDS011;23596;52.520;13.464;2023-05-19T09:56:40;6.13;;;1.58;;
37753;SDS011;23596;52.520;13.464;2023-05-19T09:59:06;4.53;;;1.70;;
37753;SDS011;23596;52.520;13.464;2023-05-19T10:01:32;4.50;;;1.13;;
37753;SDS011;23596;52.520;13.464;2023-05-19T10:03:57;4.27;;;1.13;;
37753;SDS011;23596;52.520;13.464;2023-05-19T10:06:24;10.35;;;1.30;;
37753;SDS011;23596;52.520;13.464;2023-05-19T10:08:50;9.73;;;1.10;;
37753;SDS011;23596;52.520;13.464;2023-05-19T10:11:16;3.28;;;1.83;;
37753;SDS011;23596;52.520;13.464;2023-05-19T10:13:43;4.20;;;1.50;;
37753;SDS011;23596;52.520;13.464;2023-05-19T10:16:10;4.78;;;1.13;;
37753;SDS011;23596;52.520;13.464;2023-05-19T10:18:37;8.50;;;1.48;;
37753;SDS011;23596;52.520;13.464;2023-05-19T10:21:04;3.50;;;1.30;;
37753;SDS011;23596;52.520;13.464;2023-05-19T10:23:32;8.45;;;1.60;;
37753;SDS011;23596;52.520;13.464;2023-05-19T10:25:58;3.53;;;1.55;;
37753;SDS011;23596;52.520;13.464;2023-05-19T10:30:55;5.80;;;2.03;;
37753;SDS011;23596;52.520;13.464;2023-05-19T10:36:33;7.50;;;1.50;;
37753;SDS011;23596;52.520;13.464;2023-05-19T10:39:24;2.38;;;1.02;;
37753;SDS011;23596;52.520;13.464;2023-05-19T10:42:11;5.03;;;1.60;;
37753;SDS011;23596;52.520;13.464;2023-05-19T10:44:45;5.38;;;1.52;;
37753;SDS011;23596;52.520;13.464;2023-05-19T10:47:27;4.20;;;1.48;;
37753;SDS011;23596;52.520;13.464;2023-05-19T10:49:54;6.40;;;1.50;;
37753;SDS011;23596;52.520;13.464;2023-05-19T10:52:22;2.63;;;1.20;;
37753;SDS011;23596;52.520;13.464;2023-05-19T10:54:53;7.85;;;1.58;;
37753;SDS011;23596;52.520;13.464;2023-05-19T10:57:20;6.67;;;1.20;;
37753;SDS011;23596;52.520;13.464;2023-05-19T10:59:55;2.22;;;1.10;;
37753;SDS011;23596;52.520;13.464;2023-05-19T11:02:38;3.60;;;1.48;;
37753;SDS011;23596;52.520;13.464;2023-05-19T11:05:11;13.50;;;1.83;;
37753;SDS011;23596;52.520;13.464;2023-05-19T11:07:57;5.05;;;1.80;;
37753;SDS011;23596;52.520;13.464;2023-05-19T11:10:31;3.55;;;1.30;;
37753;SDS011;23596;52.520;13.464;2023-05-19T11:12:57;7.60;;;1.07;;
37753;SDS011;23596;52.520;13.464;2023-05-19T11:15:26;2.43;;;1.33;;
37753;SDS011;23596;52.520;13.464;2023-05-19T11:17:53;6.25;;;1.58;;
37753;SDS011;23596;52.520;13.464;2023-05-19T11:20:25;3.92;;;1.60;;
37753;SDS011;23596;52.520;13.464;2023-05-19T11:28:07;5.97;;;1.13;;
37753;SDS011;23596;52.520;13.464;2023-05-19T11:30:36;4.47;;;1.50;;
37753;SDS011;23596;52.520;13.464;2023-05-19T11:33:02;3.03;;;1.40;;
37753;SDS011;23596;52.520;13.464;2023-05-19T11:35:29;7.43;;;2.00;;
37753;SDS011;23596;52.520;13.464;2023-05-19T11:37:56;13.50;;;1.40;;
37753;SDS011;23596;52.520;13.464;2023-05-19T11:40:23;3.00;;;1.20;;
37753;SDS011;23596;52.520;13.464;2023-05-19T11:42:49;6.90;;;1.88;;
37753;SDS011;23596;52.520;13.464;2023-05-19T11:45:15;3.00;;;1.47;;
37753;SDS011;23596;52.520;13.464;2023-05-19T11:47:40;3.03;;;1.30;;
37753;SDS011;23596;52.520;13.464;2023-05-19T11:50:06;4.53;;;1.30;;
37753;SDS011;23596;52.520;13.464;2023-05-19T11:52:36;6.63;;;2.10;;
37753;SDS011;23596;52.520;13.464;2023-05-19T11:55:08;2.40;;;1.30;;
37753;SDS011;23596;52.520;13.464;2023-05-19T11:57:33;9.13;;;1.60;;
37753;SDS011;23596;52.520;13.464;2023-05-19T12:00:00;2.10;;;1.10;;
37753;SDS011;23596;52.520;13.464;2023-05-19T12:02:26;7.15;;;1.50;;
37753;SDS011;23596;52.520;13.464;2023-05-19T12:04:54;2.65;;;1.15;;
37753;SDS011;23596;52.520;13.464;2023-05-19T12:07:23;9.03;;;1.37;;
37753;SDS011;23596;52.520;13.464;2023-05-19T12:09:50;6.32;;;1.67;;
37753;SDS011;23596;52.520;13.464;2023-05-19T12:12:16;12.48;;;1.10;;
37753;SDS011;23596;52.520;13.464;2023-05-19T12:14:46;2.97;;;1.30;;
37753;SDS011;23596;52.520;13.464;2023-05-19T12:17:17;2.72;;;1.30;;
37753;SDS011;23596;52.520;13.464;2023-05-19T12:19:45;3.67;;;1.30;;
37753;SDS011;23596;52.520;13.464;2023-05-19T12:22:12;7.55;;;1.35;;
37753;SDS011;23596;52.520;13.464;2023-05-19T12:24:39;1.90;;;1.23;;
37753;SDS011;23596;52.520;13.464;2023-05-19T12:29:41;6.43;;;1.35;;
37753;SDS011;23596;52.520;13.464;2023-05-19T12:32:07;5.77;;;1.43;;
37753;SDS011;23596;52.520;13.464;2023-05-19T12:34:37;3.55;;;1.52;;
37753;SDS011;23596;52.520;13.464;2023-05-19T12:37:06;9.85;;;2.00;;
37753;SDS011;23596;52.520;13.464;2023-05-19T12:39:32;5.45;;;1.77;;
37753;SDS011;23596;52.520;13.464;2023-05-19T12:42:01;3.23;;;1.80;;
37753;SDS011;23596;52.520;13.464;2023-05-19T12:44:28;6.90;;;1.88;;
37753;SDS011;23596;52.520;13.464;2023-05-19T12:46:55;5.25;;;1.50;;
37753;SDS011;23596;52.520;13.464;2023-05-19T12:49:23;8.50;;;1.40;;
37753;SDS011;23596;52.520;13.464;2023-05-19T12:51:52;4.63;;;1.80;;
37753;SDS011;23596;52.520;13.464;2023-05-19T12:54:18;6.35;;;1.77;;
37753;SDS011;23596;52.520;13.464;2023-05-19T12:56:52;4.00;;;1.42;;
37753;SDS011;23596;52.520;13.464;2023-05-19T12:59:22;11.43;;;1.95;;
37753;SDS011;23596;52.520;13.464;2023-05-19T13:01:58;9.80;;;1.60;;
37753;SDS011;23596;52.520;13.464;2023-05-19T13:04:24;2.70;;;1.50;;
37753;SDS011;23596;52.520;13.464;2023-05-19T13:06:51;2.85;;;1.33;;
37753;SDS011;23596;52.520;13.464;2023-05-19T13:09:18;5.68;;;1.80;;
37753;SDS011;23596;52.520;13.464;2023-05-19T13:11:45;7.30;;;1.70;;
37753;SDS011;23596;52.520;13.464;2023-05-19T13:14:16;4.35;;;1.55;;
37753;SDS011;23596;52.520;13.464;2023-05-19T13:16:45;7.95;;;2.13;;
37753;SDS011;23596;52.520;13.464;2023-05-19T13:19:16;5.53;;;2.47;;
37753;SDS011;23596;52.520;13.464;2023-05-19T13:21:42;5.55;;;1.52;;
37753;SDS011;23596;52.520;13.464;2023-05-19T13:24:11;7.68;;;1.58;;
37753;SDS011;23596;52.520;13.464;2023-05-19T13:26:37;4.30;;;1.50;;
37753;SDS011;23596;52.520;13.464;2023-05-19T13:29:03;4.07;;;1.42;;
37753;SDS011;23596;52.520;13.464;2023-05-19T13:31:29;3.45;;;1.52;;
37753;SDS011;23596;52.520;13.464;2023-05-19T13:33:55;5.83;;;1.80;;
37753;SDS011;23596;52.520;13.464;2023-05-19T13:36:21;4.00;;;1.73;;
37753;SDS011;23596;52.520;13.464;2023-05-19T13:38:46;4.40;;;1.70;;
37753;SDS011;23596;52.520;13.464;2023-05-19T13:41:12;2.93;;;1.67;;
37753;SDS011;23596;52.520;13.464;2023-05-19T13:43:38;10.47;;;2.20;;
37753;SDS011;23596;52.520;13.464;2023-05-19T13:46:03;6.00;;;1.10;;
37753;SDS011;23596;52.520;13.464;2023-05-19T13:48:29;9.05;;;1.90;;
37753;SDS011;23596;52.520;13.464;2023-05-19T13:50:55;3.13;;;1.60;;
37753;SDS011;23596;52.520;13.464;2023-05-19T13:53:20;6.40;;;1.57;;
37753;SDS011;23596;52.520;13.464;2023-05-19T13:55:46;4.20;;;1.67;;
37753;SDS011;23596;52.520;13.464;2023-05-19T13:58:12;7.27;;;1.70;;
37753;SDS011;23596;52.520;13.464;2023-05-19T14:00:40;3.15;;;1.70;;
37753;SDS011;23596;52.520;13.464;2023-05-19T14:03:06;13.63;;;2.20;;
37753;SDS011;23596;52.520;13.464;2023-05-19T14:05:32;3.20;;;1.73;;
37753;SDS011;23596;52.520;13.464;2023-05-19T14:07:58;5.68;;;2.17;;
37753;SDS011;23596;52.520;13.464;2023-05-19T14:10:25;9.93;;;1.70;;
37753;SDS011;23596;52.520;13.464;2023-05-19T14:12:50;13.23;;;1.83;;
37753;SDS011;23596;52.520;13.464;2023-05-19T14:15:18;6.80;;;1.75;;
37753;SDS011;23596;52.520;13.464;2023-05-19T14:17:44;6.00;;;1.80;;
37753;SDS011;23596;52.520;13.464;2023-05-19T14:20:10;4.13;;;1.90;;
37753;SDS011;23596;52.520;13.464;2023-05-19T14:22:36;8.93;;;1.93;;
37753;SDS011;23596;52.520;13.464;2023-05-19T14:25:01;3.93;;;1.67;;
37753;SDS011;23596;52.520;13.464;2023-05-19T14:27:27;7.70;;;1.70;;
37753;SDS011;23596;52.520;13.464;2023-05-19T14:29:53;5.57;;;2.07;;
37753;SDS011;23596;52.520;13.464;2023-05-19T14:32:18;6.23;;;2.13;;
37753;SDS011;23596;52.520;13.464;2023-05-19T14:34:44;4.80;;;2.13;;
37753;SDS011;23596;52.520;13.464;2023-05-19T14:37:10;3.00;;;1.37;;
37753;SDS011;23596;52.520;13.464;2023-05-19T14:39:35;4.60;;;1.80;;
37753;SDS011;23596;52.520;13.464;2023-05-19T14:42:01;6.70;;;2.10;;
37753;SDS011;23596;52.520;13.464;2023-05-19T14:44:30;5.40;;;1.90;;
37753;SDS011;23596;52.520;13.464;2023-05-19T14:46:57;10.32;;;1.70;;
37753;SDS011;23596;52.520;13.464;2023-05-19T14:49:24;6.50;;;2.05;;
37753;SDS011;23596;52.520;13.464;2023-05-19T14:51:49;5.77;;;1.70;;
37753;SDS011;23596;52.520;13.464;2023-05-19T14:54:15;4.00;;;1.60;;
37753;SDS011;23596;52.520;13.464;2023-05-19T14:56:40;7.33;;;1.43;;
37753;SDS011;23596;52.520;13.464;2023-05-19T14:59:06;4.33;;;1.83;;
37753;SDS011;23596;52.520;13.464;2023-05-19T15:01:32;5.87;;;1.63;;
37753;SDS011;23596;52.520;13.464;2023-05-19T15:03:57;4.07;;;1.40;;
37753;SDS011;23596;52.520;13.464;2023-05-19T15:06:23;11.00;;;1.90;;